sensor_id;sensor_type;location;lat;lon;timestamp;temperature;humidity
43647;DHT22;56152;49.996;18.980;2023-06-22T00:00:49;19.40;93.10
43647;DHT22;56152;49.996;18.980;2023-06-22T00:05:53;19.40;93.10
43647;DHT22;56152;49.996;18.980;2023-06-22T00:10:57;19.40;93.20
43647;DHT22;56152;49.996;18.980;2023-06-22T00:15:59;19.30;93.50
43647;DHT22;56152;49.996;18.980;2023-06-22T00:21:04;19.40;93.20
43647;DHT22;56152;49.996;18.980;2023-06-22T00:26:07;19.40;93.30
43647;DHT22;56152;49.996;18.980;2023-06-22T00:31:10;19.40;93.30
43647;DHT22;56152;49.996;18.980;2023-06-22T00:36:13;19.40;93.30
43647;DHT22;56152;49.996;18.980;2023-06-22T00:41:17;19.40;93.20
43647;DHT22;56152;49.996;18.980;2023-06-22T00:46:19;19.40;93.20
43647;DHT22;56152;49.996;18.980;2023-06-22T00:51:22;19.40;93.10
43647;DHT22;56152;49.996;18.980;2023-06-22T00:56:24;19.40;93.20
43647;DHT22;56152;49.996;18.980;2023-06-22T01:01:35;19.50;93.10
43647;DHT22;56152;49.996;18.980;2023-06-22T01:06:54;19.40;93.10
43647;DHT22;56152;49.996;18.980;2023-06-22T01:12:04;19.40;93.10
43647;DHT22;56152;49.996;18.980;2023-06-22T01:17:11;19.40;93.30
43647;DHT22;56152;49.996;18.980;2023-06-22T01:22:21;19.40;93.40
43647;DHT22;56152;49.996;18.980;2023-06-22T01:27:36;19.40;93.50
43647;DHT22;56152;49.996;18.980;2023-06-22T01:32:43;19.30;93.40
43647;DHT22;56152;49.996;18.980;2023-06-22T01:37:46;19.30;93.50
43647;DHT22;56152;49.996;18.980;2023-06-22T01:42:53;19.30;93.90
43647;DHT22;56152;49.996;18.980;2023-06-22T01:48:19;19.30;93.70
43647;DHT22;56152;49.996;18.980;2023-06-22T01:53:22;19.20;93.70
43647;DHT22;56152;49.996;18.980;2023-06-22T01:58:27;19.10;93.70
43647;DHT22;56152;49.996;18.980;2023-06-22T02:03:38;19.10;93.80
43647;DHT22;56152;49.996;18.980;2023-06-22T02:08:51;19.10;93.70
43647;DHT22;56152;49.996;18.980;2023-06-22T02:13:56;19.00;93.60
43647;DHT22;56152;49.996;18.980;2023-06-22T02:19:02;18.90;93.60
43647;DHT22;56152;49.996;18.980;2023-06-22T02:24:14;18.90;93.70
43647;DHT22;56152;49.996;18.980;2023-06-22T02:29:30;18.90;93.70
43647;DHT22;56152;49.996;18.980;2023-06-22T02:34:34;18.80;93.60
43647;DHT22;56152;49.996;18.980;2023-06-22T02:39:37;18.80;93.70
43647;DHT22;56152;49.996;18.980;2023-06-22T02:44:45;18.70;93.80
43647;DHT22;56152;49.996;18.980;2023-06-22T02:49:48;18.70;93.90
43647;DHT22;56152;49.996;18.980;2023-06-22T02:54:50;18.60;93.90
43647;DHT22;56152;49.996;18.980;2023-06-22T03:00:05;18.60;93.90
43647;DHT22;56152;49.996;18.980;2023-06-22T03:05:19;18.60;93.90
43647;DHT22;56152;49.996;18.980;2023-06-22T03:10:32;18.60;93.90
43647;DHT22;56152;49.996;18.980;2023-06-22T03:15:34;18.50;93.90
43647;DHT22;56152;49.996;18.980;2023-06-22T03:20:52;18.50;94.00
43647;DHT22;56152;49.996;18.980;2023-06-22T03:25:54;18.60;94.10
43647;DHT22;56152;49.996;18.980;2023-06-22T03:30:57;18.70;94.20
43647;DHT22;56152;49.996;18.980;2023-06-22T03:36:01;18.80;94.30
43647;DHT22;56152;49.996;18.980;2023-06-22T03:41:08;18.90;94.20
43647;DHT22;56152;49.996;18.980;2023-06-22T03:46:10;18.90;94.20
43647;DHT22;56152;49.996;18.980;2023-06-22T03:51:14;19.00;94.30
43647;DHT22;56152;49.996;18.980;2023-06-22T03:56:16;19.00;94.30
43647;DHT22;56152;49.996;18.980;2023-06-22T04:01:27;19.00;94.30
43647;DHT22;56152;49.996;18.980;2023-06-22T04:06:30;19.10;94.40
43647;DHT22;56152;49.996;18.980;2023-06-22T04:11:44;19.20;94.30
43647;DHT22;56152;49.996;18.980;2023-06-22T04:16:46;19.40;94.30
43647;DHT22;56152;49.996;18.980;2023-06-22T04:21:49;19.60;94.10
43647;DHT22;56152;49.996;18.980;2023-06-22T04:26:55;19.80;93.90
43647;DHT22;56152;49.996;18.980;2023-06-22T04:31:57;20.00;93.70
43647;DHT22;56152;49.996;18.980;2023-06-22T04:37:12;20.20;93.50
43647;DHT22;56152;49.996;18.980;2023-06-22T04:42:15;20.50;93.30
43647;DHT22;56152;49.996;18.980;2023-06-22T04:47:17;20.70;93.00
43647;DHT22;56152;49.996;18.980;2023-06-22T04:52:23;20.80;92.80
43647;DHT22;56152;49.996;18.980;2023-06-22T04:57:25;21.00;92.60
43647;DHT22;56152;49.996;18.980;2023-06-22T05:02:32;21.20;92.40
43647;DHT22;56152;49.996;18.980;2023-06-22T05:07:52;21.50;92.40
43647;DHT22;56152;49.996;18.980;2023-06-22T05:12:55;21.70;92.10
43647;DHT22;56152;49.996;18.980;2023-06-22T05:18:03;21.90;91.70
43647;DHT22;56152;49.996;18.980;2023-06-22T05:23:08;21.80;91.60
43647;DHT22;56152;49.996;18.980;2023-06-22T05:28:10;21.70;91.70
43647;DHT22;56152;49.996;18.980;2023-06-22T05:33:14;21.60;92.00
43647;DHT22;56152;49.996;18.980;2023-06-22T05:38:18;21.80;91.90
43647;DHT22;56152;49.996;18.980;2023-06-22T05:43:25;22.20;91.50
43647;DHT22;56152;49.996;18.980;2023-06-22T05:48:27;22.60;91.10
43647;DHT22;56152;49.996;18.980;2023-06-22T05:53:30;22.80;90.70
43647;DHT22;56152;49.996;18.980;2023-06-22T05:58:33;23.10;90.40
43647;DHT22;56152;49.996;18.980;2023-06-22T06:03:35;23.40;90.10
43647;DHT22;56152;49.996;18.980;2023-06-22T06:08:47;23.70;89.60
43647;DHT22;56152;49.996;18.980;2023-06-22T06:13:49;24.10;88.50
43647;DHT22;56152;49.996;18.980;2023-06-22T06:19:06;24.30;87.90
43647;DHT22;56152;49.996;18.980;2023-06-22T06:24:10;24.60;87.60
43647;DHT22;56152;49.996;18.980;2023-06-22T06:29:12;25.00;86.40
43647;DHT22;56152;49.996;18.980;2023-06-22T06:34:17;25.20;85.60
43647;DHT22;56152;49.996;18.980;2023-06-22T06:39:21;25.00;85.20
43647;DHT22;56152;49.996;18.980;2023-06-22T06:44:26;25.20;84.60
43647;DHT22;56152;49.996;18.980;2023-06-22T06:49:28;25.30;84.00
43647;DHT22;56152;49.996;18.980;2023-06-22T06:54:38;25.50;83.80
43647;DHT22;56152;49.996;18.980;2023-06-22T06:59:42;26.00;83.30
43647;DHT22;56152;49.996;18.980;2023-06-22T07:04:45;26.30;81.80
43647;DHT22;56152;49.996;18.980;2023-06-22T07:09:49;26.70;81.50
43647;DHT22;56152;49.996;18.980;2023-06-22T07:14:51;26.90;79.90
43647;DHT22;56152;49.996;18.980;2023-06-22T07:19:53;27.10;79.30
43647;DHT22;56152;49.996;18.980;2023-06-22T07:25:14;27.50;78.20
43647;DHT22;56152;49.996;18.980;2023-06-22T07:30:18;27.30;78.60
43647;DHT22;56152;49.996;18.980;2023-06-22T07:35:23;27.30;78.70
43647;DHT22;56152;49.996;18.980;2023-06-22T07:40:27;27.20;78.60
43647;DHT22;56152;49.996;18.980;2023-06-22T07:45:29;27.20;78.40
43647;DHT22;56152;49.996;18.980;2023-06-22T07:50:35;27.20;78.40
43647;DHT22;56152;49.996;18.980;2023-06-22T07:55:38;27.50;77.90
43647;DHT22;56152;49.996;18.980;2023-06-22T08:00:40;27.90;75.70
43647;DHT22;56152;49.996;18.980;2023-06-22T08:05:42;28.10;75.90
43647;DHT22;56152;49.996;18.980;2023-06-22T08:10:46;28.20;75.60
43647;DHT22;56152;49.996;18.980;2023-06-22T08:15:49;27.90;75.60
43647;DHT22;56152;49.996;18.980;2023-06-22T08:20:51;27.50;76.10
43647;DHT22;56152;49.996;18.980;2023-06-22T08:25:55;27.60;76.60
43647;DHT22;56152;49.996;18.980;2023-06-22T08:30:57;28.00;75.50
43647;DHT22;56152;49.996;18.980;2023-06-22T08:35:59;27.90;76.00
43647;DHT22;56152;49.996;18.980;2023-06-22T08:41:03;28.20;74.90
43647;DHT22;56152;49.996;18.980;2023-06-22T08:46:05;28.80;73.00
43647;DHT22;56152;49.996;18.980;2023-06-22T08:51:09;28.50;72.00
43647;DHT22;56152;49.996;18.980;2023-06-22T08:56:12;28.50;72.10
43647;DHT22;56152;49.996;18.980;2023-06-22T09:01:17;28.20;72.60
43647;DHT22;56152;49.996;18.980;2023-06-22T09:06:19;27.90;72.30
43647;DHT22;56152;49.996;18.980;2023-06-22T09:11:28;28.10;72.70
43647;DHT22;56152;49.996;18.980;2023-06-22T09:16:38;28.50;71.50
43647;DHT22;56152;49.996;18.980;2023-06-22T09:21:40;29.20;70.10
43647;DHT22;56152;49.996;18.980;2023-06-22T09:26:45;29.10;69.80
43647;DHT22;56152;49.996;18.980;2023-06-22T09:31:47;29.40;69.40
43647;DHT22;56152;49.996;18.980;2023-06-22T09:36:57;29.50;69.10
43647;DHT22;56152;49.996;18.980;2023-06-22T09:42:03;29.80;67.90
43647;DHT22;56152;49.996;18.980;2023-06-22T09:47:16;30.10;66.30
43647;DHT22;56152;49.996;18.980;2023-06-22T09:52:18;30.40;67.40
43647;DHT22;56152;49.996;18.980;2023-06-22T09:57:33;30.60;65.20
43647;DHT22;56152;49.996;18.980;2023-06-22T10:02:35;30.50;63.80
43647;DHT22;56152;49.996;18.980;2023-06-22T10:07:37;29.80;65.40
43647;DHT22;56152;49.996;18.980;2023-06-22T10:12:57;29.40;65.80
43647;DHT22;56152;49.996;18.980;2023-06-22T10:18:00;28.90;66.70
43647;DHT22;56152;49.996;18.980;2023-06-22T10:23:14;28.70;67.10
43647;DHT22;56152;49.996;18.980;2023-06-22T10:28:18;29.00;66.60
43647;DHT22;56152;49.996;18.980;2023-06-22T10:33:20;29.70;65.40
43647;DHT22;56152;49.996;18.980;2023-06-22T10:38:29;30.00;63.90
43647;DHT22;56152;49.996;18.980;2023-06-22T10:43:33;30.00;64.30
43647;DHT22;56152;49.996;18.980;2023-06-22T10:48:43;30.20;62.40
43647;DHT22;56152;49.996;18.980;2023-06-22T10:53:45;30.30;63.30
43647;DHT22;56152;49.996;18.980;2023-06-22T10:58:54;30.60;61.30
43647;DHT22;56152;49.996;18.980;2023-06-22T11:03:56;30.10;62.00
43647;DHT22;56152;49.996;18.980;2023-06-22T11:08:59;29.90;62.40
43647;DHT22;56152;49.996;18.980;2023-06-22T11:14:02;30.00;61.00
43647;DHT22;56152;49.996;18.980;2023-06-22T11:19:07;30.00;60.20
43647;DHT22;56152;49.996;18.980;2023-06-22T11:24:11;30.00;59.70
43647;DHT22;56152;49.996;18.980;2023-06-22T11:29:27;30.20;59.80
43647;DHT22;56152;49.996;18.980;2023-06-22T11:34:29;30.70;59.90
43647;DHT22;56152;49.996;18.980;2023-06-22T11:39:46;30.40;58.80
43647;DHT22;56152;49.996;18.980;2023-06-22T11:44:49;29.90;60.40
43647;DHT22;56152;49.996;18.980;2023-06-22T11:49:51;29.70;61.00
43647;DHT22;56152;49.996;18.980;2023-06-22T11:54:59;29.90;60.90
43647;DHT22;56152;49.996;18.980;2023-06-22T12:00:15;30.20;60.20
43647;DHT22;56152;49.996;18.980;2023-06-22T12:05:19;30.10;59.30
43647;DHT22;56152;49.996;18.980;2023-06-22T12:10:25;30.00;58.70
43647;DHT22;56152;49.996;18.980;2023-06-22T12:15:30;30.10;58.70
43647;DHT22;56152;49.996;18.980;2023-06-22T12:20:32;29.90;59.20
43647;DHT22;56152;49.996;18.980;2023-06-22T12:25:34;29.80;60.00
43647;DHT22;56152;49.996;18.980;2023-06-22T12:30:53;29.60;60.60
43647;DHT22;56152;49.996;18.980;2023-06-22T12:35:54;30.00;60.10
43647;DHT22;56152;49.996;18.980;2023-06-22T12:40:57;30.20;59.70
43647;DHT22;56152;49.996;18.980;2023-06-22T12:46:01;30.50;59.30
43647;DHT22;56152;49.996;18.980;2023-06-22T12:51:04;30.50;58.90
43647;DHT22;56152;49.996;18.980;2023-06-22T12:56:06;30.50;58.70
43647;DHT22;56152;49.996;18.980;2023-06-22T13:01:10;30.40;58.90
43647;DHT22;56152;49.996;18.980;2023-06-22T13:06:12;29.90;59.50
43647;DHT22;56152;49.996;18.980;2023-06-22T13:11:16;29.50;59.60
43647;DHT22;56152;49.996;18.980;2023-06-22T13:16:20;29.30;59.30
43647;DHT22;56152;49.996;18.980;2023-06-22T13:21:36;29.10;59.60
43647;DHT22;56152;49.996;18.980;2023-06-22T13:26:41;28.90;60.10
43647;DHT22;56152;49.996;18.980;2023-06-22T13:31:47;28.70;60.60
43647;DHT22;56152;49.996;18.980;2023-06-22T13:36:52;28.60;60.80
43647;DHT22;56152;49.996;18.980;2023-06-22T13:41:55;28.40;59.70
43647;DHT22;56152;49.996;18.980;2023-06-22T13:47:02;28.60;60.60
43647;DHT22;56152;49.996;18.980;2023-06-22T13:52:06;28.70;61.00
43647;DHT22;56152;49.996;18.980;2023-06-22T13:57:10;28.90;60.80
43647;DHT22;56152;49.996;18.980;2023-06-22T14:02:14;29.20;60.40
43647;DHT22;56152;49.996;18.980;2023-06-22T14:07:16;29.60;59.50
43647;DHT22;56152;49.996;18.980;2023-06-22T14:12:28;29.80;58.80
43647;DHT22;56152;49.996;18.980;2023-06-22T14:17:32;29.70;58.60
43647;DHT22;56152;49.996;18.980;2023-06-22T14:22:35;29.60;58.30
43647;DHT22;56152;49.996;18.980;2023-06-22T14:27:37;29.40;58.20
43647;DHT22;56152;49.996;18.980;2023-06-22T14:32:43;29.30;58.90
43647;DHT22;56152;49.996;18.980;2023-06-22T14:37:45;29.30;59.00
43647;DHT22;56152;49.996;18.980;2023-06-22T14:42:50;29.40;58.20
43647;DHT22;56152;49.996;18.980;2023-06-22T14:47:53;29.60;58.30
43647;DHT22;56152;49.996;18.980;2023-06-22T14:52:58;29.60;58.40
43647;DHT22;56152;49.996;18.980;2023-06-22T14:58:11;29.50;58.20
43647;DHT22;56152;49.996;18.980;2023-06-22T15:03:15;29.50;58.50
43647;DHT22;56152;49.996;18.980;2023-06-22T15:08:21;29.50;58.20
43647;DHT22;56152;49.996;18.980;2023-06-22T15:13:23;29.40;58.50
43647;DHT22;56152;49.996;18.980;2023-06-22T15:18:32;29.50;57.80
43647;DHT22;56152;49.996;18.980;2023-06-22T15:23:37;29.60;57.60
43647;DHT22;56152;49.996;18.980;2023-06-22T15:28:42;29.70;57.30
43647;DHT22;56152;49.996;18.980;2023-06-22T15:33:51;29.90;57.30
43647;DHT22;56152;49.996;18.980;2023-06-22T15:38:54;29.90;57.20
43647;DHT22;56152;49.996;18.980;2023-06-22T15:44:00;29.70;57.60
43647;DHT22;56152;49.996;18.980;2023-06-22T15:49:04;29.70;57.30
43647;DHT22;56152;49.996;18.980;2023-06-22T15:54:06;29.60;57.10
43647;DHT22;56152;49.996;18.980;2023-06-22T15:59:08;29.60;57.40
43647;DHT22;56152;49.996;18.980;2023-06-22T16:04:16;29.50;57.60
43647;DHT22;56152;49.996;18.980;2023-06-22T16:09:18;29.50;57.20
43647;DHT22;56152;49.996;18.980;2023-06-22T16:14:20;29.40;56.90
43647;DHT22;56152;49.996;18.980;2023-06-22T16:19:25;29.40;56.40
43647;DHT22;56152;49.996;18.980;2023-06-22T16:24:29;29.40;56.40
43647;DHT22;56152;49.996;18.980;2023-06-22T16:29:32;29.30;56.80
43647;DHT22;56152;49.996;18.980;2023-06-22T16:34:43;29.30;56.90
43647;DHT22;56152;49.996;18.980;2023-06-22T16:39:46;29.20;56.80
43647;DHT22;56152;49.996;18.980;2023-06-22T16:44:49;29.20;57.20
43647;DHT22;56152;49.996;18.980;2023-06-22T16:49:52;29.20;57.10
43647;DHT22;56152;49.996;18.980;2023-06-22T16:54:54;29.10;56.90
43647;DHT22;56152;49.996;18.980;2023-06-22T16:59:58;29.10;57.30
43647;DHT22;56152;49.996;18.980;2023-06-22T17:05:05;29.00;57.40
43647;DHT22;56152;49.996;18.980;2023-06-22T17:10:09;29.00;57.60
43647;DHT22;56152;49.996;18.980;2023-06-22T17:15:12;28.90;57.90
43647;DHT22;56152;49.996;18.980;2023-06-22T17:20:16;28.80;57.80
43647;DHT22;56152;49.996;18.980;2023-06-22T17:25:19;28.70;57.70
43647;DHT22;56152;49.996;18.980;2023-06-22T17:30:26;28.70;57.80
43647;DHT22;56152;49.996;18.980;2023-06-22T17:35:45;28.60;58.00
43647;DHT22;56152;49.996;18.980;2023-06-22T17:40:48;28.50;57.80
43647;DHT22;56152;49.996;18.980;2023-06-22T17:45:51;28.40;58.00
43647;DHT22;56152;49.996;18.980;2023-06-22T17:50:55;28.30;58.80
43647;DHT22;56152;49.996;18.980;2023-06-22T17:55:59;28.10;58.50
43647;DHT22;56152;49.996;18.980;2023-06-22T18:01:01;28.00;58.70
43647;DHT22;56152;49.996;18.980;2023-06-22T18:06:19;27.90;59.70
43647;DHT22;56152;49.996;18.980;2023-06-22T18:11:24;27.70;59.10
43647;DHT22;56152;49.996;18.980;2023-06-22T18:16:49;27.60;59.40
43647;DHT22;56152;49.996;18.980;2023-06-22T18:21:55;27.40;59.60
43647;DHT22;56152;49.996;18.980;2023-06-22T18:26:59;27.30;59.90
43647;DHT22;56152;49.996;18.980;2023-06-22T18:32:16;27.20;60.20
43647;DHT22;56152;49.996;18.980;2023-06-22T18:37:29;27.00;60.50
43647;DHT22;56152;49.996;18.980;2023-06-22T18:42:33;26.90;61.40
43647;DHT22;56152;49.996;18.980;2023-06-22T18:48:05;26.70;62.20
43647;DHT22;56152;49.996;18.980;2023-06-22T18:53:27;26.40;62.90
43647;DHT22;56152;49.996;18.980;2023-06-22T18:58:33;26.30;64.00
43647;DHT22;56152;49.996;18.980;2023-06-22T19:03:42;26.10;65.00
43647;DHT22;56152;49.996;18.980;2023-06-22T19:15:08;25.80;66.20
43647;DHT22;56152;49.996;18.980;2023-06-22T19:20:11;25.70;67.00
43647;DHT22;56152;49.996;18.980;2023-06-22T19:25:26;25.50;67.60
43647;DHT22;56152;49.996;18.980;2023-06-22T19:30:46;25.40;68.00
43647;DHT22;56152;49.996;18.980;2023-06-22T19:35:49;25.30;68.10
43647;DHT22;56152;49.996;18.980;2023-06-22T19:40:54;25.20;68.70
43647;DHT22;56152;49.996;18.980;2023-06-22T19:45:59;25.10;69.10
43647;DHT22;56152;49.996;18.980;2023-06-22T19:51:13;24.90;69.40
43647;DHT22;56152;49.996;18.980;2023-06-22T19:56:19;24.80;69.60
43647;DHT22;56152;49.996;18.980;2023-06-22T20:01:23;24.70;70.20
43647;DHT22;56152;49.996;18.980;2023-06-22T20:06:40;24.60;70.50
43647;DHT22;56152;49.996;18.980;2023-06-22T20:11:42;24.50;70.70
43647;DHT22;56152;49.996;18.980;2023-06-22T20:16:49;24.40;71.10
43647;DHT22;56152;49.996;18.980;2023-06-22T20:22:12;24.30;71.50
43647;DHT22;56152;49.996;18.980;2023-06-22T20:27:15;24.20;71.60
43647;DHT22;56152;49.996;18.980;2023-06-22T20:32:19;24.10;71.90
43647;DHT22;56152;49.996;18.980;2023-06-22T20:37:21;24.00;72.30
43647;DHT22;56152;49.996;18.980;2023-06-22T20:42:24;23.90;72.70
43647;DHT22;56152;49.996;18.980;2023-06-22T20:47:47;23.80;73.20
43647;DHT22;56152;49.996;18.980;2023-06-22T20:52:49;23.70;73.30
43647;DHT22;56152;49.996;18.980;2023-06-22T20:57:53;23.60;73.80
43647;DHT22;56152;49.996;18.980;2023-06-22T21:02:58;23.50;74.10
43647;DHT22;56152;49.996;18.980;2023-06-22T21:08:01;23.40;74.40
43647;DHT22;56152;49.996;18.980;2023-06-22T21:13:03;23.40;74.60
43647;DHT22;56152;49.996;18.980;2023-06-22T21:18:09;23.30;75.00
43647;DHT22;56152;49.996;18.980;2023-06-22T21:23:15;23.30;75.20
43647;DHT22;56152;49.996;18.980;2023-06-22T21:28:30;23.20;75.30
43647;DHT22;56152;49.996;18.980;2023-06-22T21:33:36;23.10;75.30
43647;DHT22;56152;49.996;18.980;2023-06-22T21:38:38;23.00;76.00
43647;DHT22;56152;49.996;18.980;2023-06-22T21:43:41;22.90;76.40
43647;DHT22;56152;49.996;18.980;2023-06-22T21:48:49;22.80;76.90
43647;DHT22;56152;49.996;18.980;2023-06-22T21:53:54;22.70;77.20
43647;DHT22;56152;49.996;18.980;2023-06-22T21:58:59;22.70;77.70
43647;DHT22;56152;49.996;18.980;2023-06-22T22:04:07;22.60;78.00
43647;DHT22;56152;49.996;18.980;2023-06-22T22:09:12;22.50;78.40
43647;DHT22;56152;49.996;18.980;2023-06-22T22:14:20;22.40;78.60
43647;DHT22;56152;49.996;18.980;2023-06-22T22:19:25;22.30;79.30
43647;DHT22;56152;49.996;18.980;2023-06-22T22:24:32;22.10;79.60
43647;DHT22;56152;49.996;18.980;2023-06-22T22:35:08;22.00;79.70
43647;DHT22;56152;49.996;18.980;2023-06-22T22:40:14;22.00;80.10
43647;DHT22;56152;49.996;18.980;2023-06-22T22:45:36;21.90;80.30
43647;DHT22;56152;49.996;18.980;2023-06-22T22:50:42;21.80;80.40
43647;DHT22;56152;49.996;18.980;2023-06-22T22:55:44;21.70;81.10
43647;DHT22;56152;49.996;18.980;2023-06-22T23:00:49;21.70;81.30
43647;DHT22;56152;49.996;18.980;2023-06-22T23:05:52;21.60;81.90
43647;DHT22;56152;49.996;18.980;2023-06-22T23:10:55;21.60;82.00
43647;DHT22;56152;49.996;18.980;2023-06-22T23:16:03;21.50;82.30
43647;DHT22;56152;49.996;18.980;2023-06-22T23:21:07;21.50;82.60
43647;DHT22;56152;49.996;18.980;2023-06-22T23:26:21;21.50;82.60
43647;DHT22;56152;49.996;18.980;2023-06-22T23:31:32;21.40;82.70
43647;DHT22;56152;49.996;18.980;2023-06-22T23:36:39;21.40;82.90
43647;DHT22;56152;49.996;18.980;2023-06-22T23:41:51;21.40;83.10
43647;DHT22;56152;49.996;18.980;2023-06-22T23:46:53;21.30;83.30
43647;DHT22;56152;49.996;18.980;2023-06-22T23:52:05;21.30;83.40
